createdAt,value
2018-10-07T00:00:12.246Z,0.00
2018-10-07T00:01:12.235Z,0.00
2018-10-07T00:02:12.219Z,0.00
2018-10-07T00:03:12.204Z,0.00
2018-10-07T00:04:12.190Z,0.00
2018-10-07T00:05:12.183Z,0.00
2018-10-07T00:06:12.166Z,0.00
2018-10-07T00:07:12.155Z,0.00
2018-10-07T00:08:12.135Z,0.00
2018-10-07T00:09:12.137Z,0.00
2018-10-07T00:10:12.115Z,0.00
2018-10-07T00:11:12.105Z,0.00
2018-10-07T00:12:12.095Z,0.00
2018-10-07T00:13:12.074Z,0.00
2018-10-07T00:14:12.055Z,0.00
2018-10-07T00:15:12.040Z,0.00
2018-10-07T00:16:12.029Z,0.00
2018-10-07T00:17:12.014Z,0.00
2018-10-07T00:18:11.999Z,0.00
2018-10-07T00:19:11.984Z,0.00
2018-10-07T00:20:11.972Z,0.00
2018-10-07T00:21:11.956Z,0.00
2018-10-07T00:22:11.944Z,0.00
2018-10-07T00:23:11.930Z,0.00
2018-10-07T00:24:11.918Z,0.00
2018-10-07T00:25:11.903Z,0.00
2018-10-07T00:26:11.892Z,0.00
2018-10-07T00:27:11.909Z,0.00
2018-10-07T00:28:11.863Z,0.00
2018-10-07T00:29:11.847Z,0.00
2018-10-07T00:30:11.837Z,0.00
2018-10-07T00:31:11.818Z,0.00
2018-10-07T00:32:11.808Z,0.00
2018-10-07T00:33:11.791Z,0.00
2018-10-07T00:34:11.778Z,0.00
2018-10-07T00:35:11.765Z,0.00
2018-10-07T00:36:11.752Z,0.00
2018-10-07T00:37:11.734Z,0.00
2018-10-07T00:38:11.721Z,0.00
2018-10-07T00:39:11.708Z,0.00
2018-10-07T00:40:11.694Z,0.00
2018-10-07T00:41:11.682Z,0.00
2018-10-07T00:42:11.684Z,0.00
2018-10-07T00:43:11.652Z,0.00
2018-10-07T00:44:11.637Z,0.00
2018-10-07T00:45:11.655Z,0.00
2018-10-07T00:46:11.615Z,0.00
2018-10-07T00:47:11.594Z,0.00
2018-10-07T00:48:11.581Z,0.00
2018-10-07T00:49:11.565Z,0.00
2018-10-07T00:50:11.553Z,0.00
2018-10-07T00:51:11.539Z,0.00
2018-10-07T00:52:11.529Z,0.00
2018-10-07T00:53:11.510Z,0.00
2018-10-07T00:54:11.496Z,0.00
2018-10-07T00:55:11.485Z,0.00
2018-10-07T00:56:11.475Z,0.00
2018-10-07T00:57:11.454Z,0.00
2018-10-07T00:58:11.442Z,0.00
2018-10-07T00:59:11.426Z,0.00
2018-10-07T01:00:11.414Z,0.00
2018-10-07T01:01:11.401Z,0.00
2018-10-07T01:02:11.385Z,0.00
2018-10-07T01:03:11.372Z,0.00
2018-10-07T01:04:11.357Z,0.00
2018-10-07T01:05:11.343Z,0.00
2018-10-07T01:06:11.326Z,0.00
2018-10-07T01:07:11.320Z,0.00
2018-10-07T01:08:11.298Z,0.00
2018-10-07T01:09:11.285Z,0.00
2018-10-07T01:11:11.255Z,0.00
2018-10-07T01:12:11.244Z,0.00
2018-10-07T01:13:11.234Z,0.00
2018-10-07T01:14:11.216Z,0.00
2018-10-07T01:15:11.199Z,0.00
2018-10-07T01:16:11.183Z,0.00
2018-10-07T01:17:11.173Z,0.00
2018-10-07T01:18:11.167Z,0.00
2018-10-07T01:19:11.145Z,0.00
2018-10-07T01:20:11.128Z,0.00
2018-10-07T01:21:11.116Z,0.00
2018-10-07T01:22:11.111Z,0.00
2018-10-07T01:23:11.088Z,0.00
2018-10-07T01:24:11.070Z,0.00
2018-10-07T01:25:11.052Z,0.00
2018-10-07T01:26:11.049Z,0.00
2018-10-07T01:27:11.027Z,0.00
2018-10-07T01:28:11.009Z,0.00
2018-10-07T01:29:11.002Z,0.00
2018-10-07T01:30:10.985Z,0.00
2018-10-07T01:31:10.971Z,0.00
2018-10-07T01:32:10.953Z,0.00
2018-10-07T01:33:10.939Z,0.00
2018-10-07T01:34:11.141Z,0.00
2018-10-07T01:35:10.914Z,0.00
2018-10-07T01:36:10.900Z,0.00
2018-10-07T01:37:10.883Z,0.00
2018-10-07T01:38:10.869Z,0.00
2018-10-07T01:39:10.857Z,0.00
2018-10-07T01:40:10.842Z,0.00
2018-10-07T01:41:10.829Z,0.00
2018-10-07T01:42:10.815Z,0.00
2018-10-07T01:43:10.802Z,0.00
2018-10-07T01:44:10.819Z,0.00
2018-10-07T01:45:10.771Z,0.00
2018-10-07T01:46:10.764Z,0.00
2018-10-07T01:47:10.744Z,0.00
2018-10-07T01:48:10.753Z,0.00
2018-10-07T01:49:10.716Z,0.00
2018-10-07T01:50:10.702Z,0.00
2018-10-07T01:51:10.939Z,0.00
2018-10-07T01:52:10.680Z,0.00
2018-10-07T01:53:10.659Z,0.00
2018-10-07T01:54:10.645Z,0.00
2018-10-07T01:55:10.631Z,0.00
2018-10-07T01:56:10.620Z,0.00
2018-10-07T01:57:10.601Z,0.00
2018-10-07T01:58:10.593Z,0.00
2018-10-07T01:59:10.583Z,0.00
2018-10-07T02:00:10.875Z,0.00
2018-10-07T02:01:10.544Z,0.00
2018-10-07T02:02:10.532Z,0.00
2018-10-07T02:03:10.519Z,0.00
2018-10-07T02:04:10.502Z,0.00
2018-10-07T02:05:10.626Z,0.00
2018-10-07T02:06:10.475Z,0.00
2018-10-07T02:07:10.462Z,0.00
2018-10-07T02:08:10.446Z,0.00
2018-10-07T02:09:10.430Z,0.00
2018-10-07T02:10:10.416Z,0.00
2018-10-07T02:11:10.401Z,0.00
2018-10-07T02:12:10.388Z,0.00
2018-10-07T02:13:10.375Z,0.00
2018-10-07T02:14:10.363Z,0.00
2018-10-07T02:15:10.348Z,0.00
2018-10-07T02:16:10.331Z,0.00
2018-10-07T02:17:10.331Z,0.00
2018-10-07T02:18:10.309Z,0.00
2018-10-07T02:19:10.287Z,0.00
2018-10-07T02:20:10.273Z,0.00
2018-10-07T02:21:10.260Z,0.00
2018-10-07T02:22:10.246Z,0.00
2018-10-07T02:23:10.234Z,0.00
2018-10-07T02:24:10.237Z,0.00
2018-10-07T02:25:10.204Z,0.00
2018-10-07T02:26:10.187Z,0.00
2018-10-07T02:27:10.176Z,0.00
2018-10-07T02:28:10.160Z,0.00
2018-10-07T02:29:10.145Z,0.00
2018-10-07T02:30:10.132Z,0.00
2018-10-07T02:31:10.117Z,0.00
2018-10-07T02:32:10.100Z,0.00
2018-10-07T02:33:10.089Z,0.00
2018-10-07T02:34:10.074Z,0.00
2018-10-07T02:35:10.061Z,0.00
2018-10-07T02:36:10.043Z,0.00
2018-10-07T02:37:10.028Z,0.00
2018-10-07T02:38:10.021Z,0.00
2018-10-07T02:39:10.003Z,0.00
2018-10-07T02:40:09.985Z,0.00
2018-10-07T02:41:09.971Z,0.00
2018-10-07T02:42:09.957Z,0.00
2018-10-07T02:43:09.944Z,0.00
2018-10-07T02:44:09.926Z,0.00
2018-10-07T02:45:09.914Z,0.00
2018-10-07T02:46:09.895Z,0.00
2018-10-07T02:47:09.883Z,0.00
2018-10-07T02:48:09.867Z,0.00
2018-10-07T02:49:09.850Z,0.00
2018-10-07T02:50:09.840Z,0.00
2018-10-07T02:51:09.826Z,0.00
2018-10-07T02:52:09.807Z,0.00
2018-10-07T02:53:09.858Z,0.00
2018-10-07T02:54:09.786Z,0.00
2018-10-07T02:55:09.763Z,0.00
2018-10-07T02:56:09.754Z,0.00
2018-10-07T02:57:09.729Z,0.00
2018-10-07T02:58:09.718Z,0.00
2018-10-07T02:59:09.702Z,0.00
2018-10-07T03:00:09.687Z,0.00
2018-10-07T03:01:09.680Z,0.00
2018-10-07T03:02:09.657Z,0.00
2018-10-07T03:03:09.645Z,0.00
2018-10-07T03:04:09.628Z,0.00
2018-10-07T03:05:09.614Z,0.00
2018-10-07T03:06:09.596Z,0.00
2018-10-07T03:07:09.579Z,0.00
2018-10-07T03:08:09.566Z,0.00
2018-10-07T03:09:09.550Z,0.00
2018-10-07T03:10:09.534Z,0.00
2018-10-07T03:11:09.518Z,0.00
2018-10-07T03:12:09.507Z,0.00
2018-10-07T03:13:09.489Z,0.00
2018-10-07T03:14:09.478Z,0.00
2018-10-07T03:15:09.458Z,0.00
2018-10-07T03:16:09.442Z,0.00
2018-10-07T03:17:09.429Z,0.00
2018-10-07T03:18:09.412Z,0.00
2018-10-07T03:19:09.396Z,0.00
2018-10-07T03:20:09.380Z,0.00
2018-10-07T03:21:09.364Z,0.00
2018-10-07T03:22:09.350Z,0.00
2018-10-07T03:23:09.333Z,0.00
2018-10-07T03:24:09.320Z,0.00
2018-10-07T03:25:09.303Z,0.00
2018-10-07T03:26:09.285Z,0.00
2018-10-07T03:27:09.271Z,0.00
2018-10-07T03:28:09.253Z,0.00
2018-10-07T03:29:09.241Z,0.00
2018-10-07T03:30:09.226Z,0.00
2018-10-07T03:31:09.208Z,0.00
2018-10-07T03:32:09.191Z,0.00
2018-10-07T03:33:09.185Z,0.00
2018-10-07T03:34:09.163Z,0.00
2018-10-07T03:35:09.146Z,0.00
2018-10-07T03:36:09.128Z,0.00
2018-10-07T03:37:09.112Z,0.00
2018-10-07T03:38:09.098Z,0.00
2018-10-07T03:39:09.083Z,0.00
2018-10-07T03:40:09.066Z,0.00
2018-10-07T03:41:09.051Z,0.00
2018-10-07T03:42:09.037Z,0.00
2018-10-07T03:43:09.022Z,0.00
2018-10-07T03:44:09.006Z,0.00
2018-10-07T03:45:08.989Z,0.00
2018-10-07T03:46:08.975Z,0.00
2018-10-07T03:47:08.956Z,0.00
2018-10-07T03:48:08.950Z,0.00
2018-10-07T03:49:08.924Z,0.00
2018-10-07T03:50:08.912Z,0.00
2018-10-07T03:51:08.895Z,0.00
2018-10-07T03:52:08.876Z,0.00
2018-10-07T03:53:08.864Z,0.00
2018-10-07T03:54:08.841Z,0.00
2018-10-07T03:55:08.831Z,0.00
2018-10-07T03:56:08.817Z,0.00
2018-10-07T03:57:08.796Z,0.00
2018-10-07T03:58:08.778Z,0.00
2018-10-07T03:59:08.768Z,0.00
2018-10-07T04:00:08.748Z,0.00
2018-10-07T04:01:08.730Z,0.00
2018-10-07T04:02:08.714Z,0.00
2018-10-07T04:03:08.696Z,0.00
2018-10-07T04:04:08.683Z,0.00
2018-10-07T04:05:08.669Z,0.00
2018-10-07T04:06:08.647Z,0.00
2018-10-07T04:07:08.639Z,0.00
2018-10-07T04:08:08.615Z,0.00
2018-10-07T04:09:08.603Z,0.00
2018-10-07T04:10:08.582Z,0.00
2018-10-07T04:11:08.566Z,0.00
2018-10-07T04:12:08.550Z,0.00
2018-10-07T04:13:08.534Z,0.00
2018-10-07T04:14:08.515Z,0.00
2018-10-07T04:15:08.499Z,0.00
2018-10-07T04:16:08.487Z,0.00
2018-10-07T04:17:08.470Z,0.00
2018-10-07T04:18:08.453Z,0.00
2018-10-07T04:19:08.439Z,0.00
2018-10-07T04:20:08.424Z,0.00
2018-10-07T04:21:08.403Z,0.00
2018-10-07T04:22:08.389Z,0.00
2018-10-07T04:23:08.375Z,0.00
2018-10-07T04:24:08.355Z,0.00
2018-10-07T04:25:08.410Z,0.00
2018-10-07T04:26:08.327Z,0.00
2018-10-07T04:27:08.311Z,0.00
2018-10-07T04:28:08.295Z,0.00
2018-10-07T04:29:08.278Z,0.00
2018-10-07T04:30:08.259Z,0.00
2018-10-07T04:31:08.241Z,0.00
2018-10-07T04:32:08.226Z,0.00
2018-10-07T04:33:08.213Z,0.00
2018-10-07T04:34:08.191Z,0.00
2018-10-07T04:35:08.177Z,0.00
2018-10-07T04:36:08.162Z,0.00
2018-10-07T04:37:08.148Z,0.00
2018-10-07T04:38:08.130Z,0.00
2018-10-07T04:39:08.121Z,0.00
2018-10-07T04:40:08.103Z,0.00
2018-10-07T04:41:08.086Z,0.00
2018-10-07T04:42:08.068Z,0.00
2018-10-07T04:43:08.054Z,0.00
2018-10-07T04:44:08.027Z,0.00
2018-10-07T04:45:08.025Z,0.00
2018-10-07T04:46:08.028Z,0.00
2018-10-07T04:47:07.988Z,0.00
2018-10-07T04:48:07.969Z,0.00
2018-10-07T04:49:07.950Z,0.00
2018-10-07T04:50:07.938Z,0.00
2018-10-07T04:51:07.924Z,0.00
2018-10-07T04:52:07.903Z,0.00
2018-10-07T04:53:07.881Z,0.00
2018-10-07T04:54:07.876Z,0.00
2018-10-07T04:55:07.848Z,0.00
2018-10-07T04:56:07.831Z,0.00
2018-10-07T04:57:07.822Z,0.00
2018-10-07T04:58:07.800Z,0.00
2018-10-07T04:59:07.787Z,0.00
2018-10-07T05:00:07.825Z,0.00
2018-10-07T05:01:07.748Z,0.00
2018-10-07T05:02:07.734Z,0.00
2018-10-07T05:03:07.716Z,0.00
2018-10-07T05:04:07.701Z,0.00
2018-10-07T05:05:07.687Z,0.00
2018-10-07T05:06:07.666Z,0.00
2018-10-07T05:07:07.660Z,0.00
2018-10-07T05:08:07.633Z,0.00
2018-10-07T05:09:07.618Z,0.00
2018-10-07T05:10:07.598Z,0.00
2018-10-07T05:11:07.584Z,0.00
2018-10-07T05:12:07.686Z,0.00
2018-10-07T05:13:07.550Z,0.00
2018-10-07T05:14:07.537Z,0.00
2018-10-07T05:15:07.517Z,0.00
2018-10-07T05:16:07.502Z,0.00
2018-10-07T05:17:07.484Z,0.00
2018-10-07T05:18:07.468Z,0.00
2018-10-07T05:19:07.451Z,0.00
2018-10-07T05:20:07.439Z,0.00
2018-10-07T05:21:07.433Z,0.00
2018-10-07T05:22:07.404Z,0.00
2018-10-07T05:23:07.389Z,0.00
2018-10-07T05:24:07.380Z,0.00
2018-10-07T05:25:07.365Z,0.00
2018-10-07T05:26:07.349Z,0.00
2018-10-07T05:27:07.318Z,0.00
2018-10-07T05:28:07.307Z,0.00
2018-10-07T05:29:07.287Z,0.00
2018-10-07T05:30:07.271Z,0.00
2018-10-07T05:31:07.256Z,0.00
2018-10-07T05:32:07.235Z,0.00
2018-10-07T05:33:07.233Z,0.00
2018-10-07T05:34:07.204Z,0.00
2018-10-07T05:35:07.186Z,0.00
2018-10-07T05:36:07.179Z,0.00
2018-10-07T05:37:07.154Z,0.00
2018-10-07T05:38:07.136Z,0.00
2018-10-07T05:39:07.121Z,0.00
2018-10-07T05:40:07.104Z,0.00
2018-10-07T05:41:07.091Z,0.00
2018-10-07T05:42:07.071Z,0.00
2018-10-07T05:43:07.060Z,0.00
2018-10-07T05:44:07.043Z,0.00
2018-10-07T05:45:07.024Z,0.00
2018-10-07T05:46:07.003Z,0.00
2018-10-07T05:47:06.993Z,0.00
2018-10-07T05:48:06.972Z,0.00
2018-10-07T05:49:06.955Z,5.63
2018-10-07T05:50:06.941Z,5.63
2018-10-07T05:51:06.933Z,5.63
2018-10-07T05:52:06.904Z,5.63
2018-10-07T05:53:06.891Z,5.63
2018-10-07T05:54:06.872Z,5.63
2018-10-07T05:55:06.856Z,5.63
2018-10-07T05:56:06.838Z,5.63
2018-10-07T05:57:06.827Z,5.63
2018-10-07T05:58:06.846Z,5.63
2018-10-07T05:59:06.797Z,5.63
2018-10-07T06:00:06.776Z,5.63
2018-10-07T06:01:06.760Z,5.63
2018-10-07T06:02:06.768Z,5.63
2018-10-07T06:03:06.731Z,5.63
2018-10-07T06:04:06.718Z,5.63
2018-10-07T06:05:06.732Z,5.63
2018-10-07T06:06:06.677Z,5.63
2018-10-07T06:07:06.659Z,11.25
2018-10-07T06:08:06.642Z,11.25
2018-10-07T06:09:06.629Z,11.25
2018-10-07T06:10:06.612Z,16.88
2018-10-07T06:11:06.593Z,16.88
2018-10-07T06:12:06.583Z,22.50
2018-10-07T06:13:06.564Z,22.50
2018-10-07T06:14:06.549Z,22.50
2018-10-07T06:15:06.527Z,28.13
2018-10-07T06:16:06.509Z,33.75
2018-10-07T06:17:06.502Z,33.75
2018-10-07T06:18:06.477Z,39.38
2018-10-07T06:19:06.461Z,45.00
2018-10-07T06:20:06.443Z,39.38
2018-10-07T06:21:06.426Z,50.63
2018-10-07T06:22:06.426Z,61.88
2018-10-07T06:23:06.397Z,61.88
2018-10-07T06:24:06.376Z,90.00
2018-10-07T06:25:06.370Z,78.75
2018-10-07T06:26:06.343Z,101.25
2018-10-07T06:27:06.328Z,174.38
2018-10-07T06:28:06.314Z,236.25
2018-10-07T06:29:06.298Z,230.63
2018-10-07T06:30:06.284Z,315.00
2018-10-07T06:31:06.269Z,298.13
2018-10-07T06:32:06.247Z,298.13
2018-10-07T06:33:06.237Z,185.63
2018-10-07T06:34:06.220Z,270.00
2018-10-07T06:35:06.203Z,270.00
2018-10-07T06:36:06.189Z,281.25
2018-10-07T06:37:06.173Z,292.50
2018-10-07T06:38:06.161Z,230.63
2018-10-07T06:39:06.147Z,230.63
2018-10-07T06:40:06.129Z,95.63
2018-10-07T06:41:06.124Z,45.00
2018-10-07T06:42:06.101Z,33.75
2018-10-07T06:43:06.101Z,33.75
2018-10-07T06:44:06.076Z,33.75
2018-10-07T06:45:06.062Z,28.13
2018-10-07T06:46:06.046Z,28.13
2018-10-07T06:47:06.039Z,28.13
2018-10-07T06:48:06.019Z,28.13
2018-10-07T06:49:06.006Z,28.13
2018-10-07T06:50:05.985Z,28.13
2018-10-07T06:51:05.978Z,28.13
2018-10-07T06:52:05.954Z,28.13
2018-10-07T06:53:05.947Z,28.13
2018-10-07T06:54:05.925Z,28.13
2018-10-07T06:55:05.909Z,28.13
2018-10-07T06:56:05.895Z,28.13
2018-10-07T06:57:05.877Z,28.13
2018-10-07T06:58:05.869Z,28.13
2018-10-07T06:59:05.847Z,28.13
2018-10-07T07:00:05.832Z,28.13
2018-10-07T07:01:05.816Z,33.75
2018-10-07T07:02:05.801Z,33.75
2018-10-07T07:03:05.784Z,33.75
2018-10-07T07:04:05.776Z,33.75
2018-10-07T07:05:05.752Z,33.75
2018-10-07T07:06:05.737Z,39.38
2018-10-07T07:07:05.722Z,39.38
2018-10-07T07:08:05.705Z,39.38
2018-10-07T07:09:05.691Z,39.38
2018-10-07T07:10:05.674Z,45.00
2018-10-07T07:11:05.666Z,45.00
2018-10-07T07:12:05.645Z,45.00
2018-10-07T07:13:05.719Z,45.00
2018-10-07T07:14:05.609Z,45.00
2018-10-07T07:15:05.598Z,45.00
2018-10-07T07:16:05.580Z,45.00
2018-10-07T07:17:05.570Z,50.63
2018-10-07T07:18:05.547Z,50.63
2018-10-07T07:19:05.532Z,50.63
2018-10-07T07:20:05.537Z,56.25
2018-10-07T07:21:05.503Z,56.25
2018-10-07T07:22:05.481Z,56.25
2018-10-07T07:23:05.467Z,61.88
2018-10-07T07:24:05.452Z,61.88
2018-10-07T07:25:05.435Z,67.50
2018-10-07T07:26:05.420Z,84.38
2018-10-07T07:27:05.455Z,90.00
2018-10-07T07:28:05.476Z,101.25
2018-10-07T07:29:05.372Z,123.75
2018-10-07T07:30:05.436Z,157.50
2018-10-07T07:31:05.341Z,163.13
2018-10-07T07:32:05.338Z,568.13
2018-10-07T07:33:05.309Z,213.75
2018-10-07T07:34:05.294Z,540.00
2018-10-07T07:35:05.280Z,646.88
2018-10-07T07:36:05.264Z,202.50
2018-10-07T07:37:05.259Z,196.88
2018-10-07T07:38:05.238Z,691.88
2018-10-07T07:39:05.225Z,230.63
2018-10-07T07:40:05.209Z,202.50
2018-10-07T07:41:05.194Z,202.50
2018-10-07T07:42:05.178Z,1125.00
2018-10-07T07:43:05.164Z,1046.25
2018-10-07T07:44:05.157Z,815.63
2018-10-07T07:45:05.144Z,1237.50
2018-10-07T07:46:05.129Z,1018.13
2018-10-07T07:47:05.115Z,1215.00
2018-10-07T07:48:05.122Z,663.75
2018-10-07T07:49:05.210Z,1282.50
2018-10-07T07:50:05.098Z,1254.38
2018-10-07T07:51:05.075Z,1181.25
2018-10-07T07:52:05.065Z,1198.13
2018-10-07T07:53:05.057Z,1237.50
2018-10-07T07:54:05.050Z,1181.25
2018-10-07T07:55:05.040Z,1254.38
2018-10-07T07:56:05.037Z,1243.13
2018-10-07T07:57:05.030Z,1305.00
2018-10-07T07:58:05.021Z,1316.25
2018-10-07T07:59:05.015Z,1192.50
2018-10-07T08:00:05.011Z,1327.50
2018-10-07T08:01:05.016Z,1355.63
2018-10-07T08:02:05.003Z,1327.50
2018-10-07T08:03:04.996Z,1288.13
2018-10-07T08:04:04.990Z,1288.13
2018-10-07T08:05:04.988Z,1338.75
2018-10-07T08:06:04.984Z,1338.75
2018-10-07T08:07:05.094Z,1350.00
2018-10-07T08:08:04.982Z,1350.00
2018-10-07T08:09:04.985Z,1237.50
2018-10-07T08:10:04.972Z,1209.38
2018-10-07T08:11:04.972Z,1350.00
2018-10-07T08:12:04.967Z,1378.13
2018-10-07T08:13:04.971Z,1361.25
2018-10-07T08:14:04.965Z,1350.00
2018-10-07T08:15:04.966Z,1316.25
2018-10-07T08:16:04.961Z,1276.88
2018-10-07T08:17:04.965Z,1327.50
2018-10-07T08:18:04.962Z,1305.00
2018-10-07T08:19:04.961Z,1119.38
2018-10-07T08:20:04.965Z,1231.88
2018-10-07T08:21:04.959Z,1276.88
2018-10-07T08:22:04.962Z,1288.13
2018-10-07T08:23:04.957Z,1361.25
2018-10-07T08:24:04.956Z,1411.88
2018-10-07T08:25:04.967Z,1479.38
2018-10-07T08:26:04.961Z,1406.25
2018-10-07T08:27:04.961Z,1203.75
2018-10-07T08:28:04.963Z,1445.63
2018-10-07T08:29:04.961Z,1603.13
2018-10-07T08:30:04.964Z,1434.38
2018-10-07T08:31:04.963Z,1440.00
2018-10-07T08:32:04.963Z,1440.00
2018-10-07T08:33:04.968Z,1445.63
2018-10-07T08:34:04.968Z,1434.38
2018-10-07T08:35:05.019Z,1507.50
2018-10-07T08:36:04.967Z,1479.38
2018-10-07T08:37:04.966Z,1417.50
2018-10-07T08:38:04.970Z,1378.13
2018-10-07T08:39:04.970Z,1423.13
2018-10-07T08:40:04.974Z,1496.25
2018-10-07T08:41:04.972Z,1485.00
2018-10-07T08:42:04.974Z,1434.38
2018-10-07T08:43:04.977Z,1490.63
2018-10-07T08:44:04.977Z,1603.13
2018-10-07T08:45:04.978Z,1580.63
2018-10-07T08:46:04.986Z,1518.75
2018-10-07T08:47:04.982Z,1535.63
2018-10-07T08:48:04.990Z,1462.50
2018-10-07T08:49:04.982Z,1423.13
2018-10-07T08:50:04.985Z,1530.00
2018-10-07T08:51:04.987Z,1417.50
2018-10-07T08:52:04.987Z,1389.38
2018-10-07T08:53:05.017Z,1366.88
2018-10-07T08:54:04.996Z,1372.50
2018-10-07T08:55:04.997Z,1417.50
2018-10-07T08:56:05.068Z,1338.75
2018-10-07T08:57:04.996Z,1350.00
2018-10-07T08:58:04.997Z,1299.38
2018-10-07T08:59:05.000Z,1237.50
2018-10-07T09:00:04.999Z,1237.50
2018-10-07T09:01:05.002Z,1361.25
2018-10-07T09:02:05.034Z,1299.38
2018-10-07T09:03:05.004Z,1366.88
2018-10-07T09:04:05.015Z,1350.00
2018-10-07T09:05:05.007Z,1231.88
2018-10-07T09:06:05.008Z,1327.50
2018-10-07T09:07:05.008Z,1237.50
2018-10-07T09:08:05.010Z,1271.25
2018-10-07T09:09:05.027Z,1361.25
2018-10-07T09:10:05.031Z,1395.00
2018-10-07T09:11:05.015Z,1316.25
2018-10-07T09:12:05.018Z,1389.38
2018-10-07T09:13:05.027Z,1350.00
2018-10-07T09:14:05.018Z,1293.75
2018-10-07T09:15:05.013Z,1288.13
2018-10-07T09:16:05.017Z,1293.75
2018-10-07T09:17:05.015Z,1316.25
2018-10-07T09:18:05.016Z,1299.38
2018-10-07T09:19:05.018Z,1333.13
2018-10-07T09:20:05.014Z,1321.88
2018-10-07T09:21:05.091Z,1316.25
2018-10-07T09:22:05.016Z,1350.00
2018-10-07T09:23:05.016Z,1310.63
2018-10-07T09:24:05.010Z,1237.50
2018-10-07T09:25:05.012Z,1186.88
2018-10-07T09:26:05.009Z,1215.00
2018-10-07T09:27:05.139Z,1147.50
2018-10-07T09:28:05.006Z,1119.38
2018-10-07T09:29:05.007Z,1186.88
2018-10-07T09:30:05.007Z,933.75
2018-10-07T09:31:05.007Z,596.25
2018-10-07T09:32:05.005Z,540.00
2018-10-07T09:33:05.010Z,540.00
2018-10-07T09:34:05.000Z,551.25
2018-10-07T09:35:05.004Z,573.75
2018-10-07T09:36:04.997Z,601.88
2018-10-07T09:37:05.012Z,641.25
2018-10-07T09:38:04.999Z,675.00
2018-10-07T09:39:04.999Z,720.00
2018-10-07T09:40:04.993Z,759.38
2018-10-07T09:41:04.988Z,877.50
2018-10-07T09:42:04.986Z,984.38
2018-10-07T09:43:04.987Z,984.38
2018-10-07T09:44:04.987Z,1080.00
2018-10-07T09:45:04.982Z,1125.00
2018-10-07T09:46:04.984Z,1096.88
2018-10-07T09:47:05.009Z,1057.50
2018-10-07T09:48:04.975Z,1119.38
2018-10-07T09:49:04.972Z,1023.75
2018-10-07T09:50:04.967Z,967.50
2018-10-07T09:51:04.964Z,939.38
2018-10-07T09:52:04.962Z,967.50
2018-10-07T09:53:04.956Z,1023.75
2018-10-07T09:54:04.956Z,1012.50
2018-10-07T09:55:04.951Z,950.63
2018-10-07T09:56:04.949Z,950.63
2018-10-07T09:57:04.947Z,978.75
2018-10-07T09:58:05.021Z,984.38
2018-10-07T09:59:04.941Z,945.00
2018-10-07T10:00:04.929Z,967.50
2018-10-07T10:01:04.953Z,950.63
2018-10-07T10:02:04.921Z,911.25
2018-10-07T10:03:04.922Z,911.25
2018-10-07T10:04:04.933Z,905.63
2018-10-07T10:05:04.909Z,894.38
2018-10-07T10:06:04.905Z,894.38
2018-10-07T10:07:04.913Z,900.00
2018-10-07T10:08:04.896Z,883.13
2018-10-07T10:09:04.895Z,866.25
2018-10-07T10:10:04.888Z,838.13
2018-10-07T10:11:04.923Z,832.50
2018-10-07T10:12:04.877Z,798.75
2018-10-07T10:13:04.874Z,675.00
2018-10-07T10:14:04.940Z,500.63
2018-10-07T10:15:04.865Z,343.13
2018-10-07T10:16:04.867Z,286.88
2018-10-07T10:17:04.855Z,275.63
2018-10-07T10:18:04.851Z,270.00
2018-10-07T10:19:04.862Z,264.38
2018-10-07T10:20:04.838Z,264.38
2018-10-07T10:21:04.835Z,264.38
2018-10-07T10:22:04.832Z,270.00
2018-10-07T10:23:04.829Z,264.38
2018-10-07T10:24:04.820Z,270.00
2018-10-07T10:25:04.818Z,270.00
2018-10-07T10:26:04.827Z,146.25
2018-10-07T10:27:04.804Z,270.00
2018-10-07T10:28:04.804Z,157.50
2018-10-07T10:29:04.793Z,258.75
2018-10-07T10:30:04.791Z,264.38
2018-10-07T10:31:04.781Z,270.00
2018-10-07T10:32:04.778Z,163.13
2018-10-07T10:33:04.770Z,225.00
2018-10-07T10:34:04.765Z,225.00
2018-10-07T10:35:04.768Z,258.75
2018-10-07T10:36:04.752Z,264.38
2018-10-07T10:37:04.747Z,264.38
2018-10-07T10:38:04.749Z,123.75
2018-10-07T10:39:04.738Z,253.13
2018-10-07T10:40:04.751Z,253.13
2018-10-07T10:41:04.732Z,258.75
2018-10-07T10:42:04.721Z,253.13
2018-10-07T10:43:04.713Z,185.63
2018-10-07T10:44:04.719Z,253.13
2018-10-07T10:45:04.699Z,253.13
2018-10-07T10:46:04.691Z,253.13
2018-10-07T10:47:04.685Z,247.50
2018-10-07T10:48:04.740Z,247.50
2018-10-07T10:49:04.670Z,247.50
2018-10-07T10:50:04.665Z,258.75
2018-10-07T10:51:04.659Z,253.13
2018-10-07T10:52:04.660Z,258.75
2018-10-07T10:53:04.648Z,253.13
2018-10-07T10:54:04.640Z,253.13
2018-10-07T10:55:04.676Z,247.50
2018-10-07T10:56:04.626Z,241.88
2018-10-07T10:57:04.622Z,241.88
2018-10-07T10:58:04.616Z,241.88
2018-10-07T10:59:04.605Z,241.88
2018-10-07T11:00:04.602Z,241.88
2018-10-07T11:01:04.659Z,236.25
2018-10-07T11:02:04.589Z,236.25
2018-10-07T11:03:04.578Z,230.63
2018-10-07T11:04:04.568Z,230.63
2018-10-07T11:05:04.563Z,230.63
2018-10-07T11:06:04.556Z,230.63
2018-10-07T11:07:04.549Z,230.63
2018-10-07T11:08:04.543Z,230.63
2018-10-07T11:09:04.548Z,230.63
2018-10-07T11:10:04.529Z,230.63
2018-10-07T11:11:04.522Z,230.63
2018-10-07T11:12:04.513Z,225.00
2018-10-07T11:13:04.512Z,225.00
2018-10-07T11:14:04.500Z,225.00
2018-10-07T11:15:04.507Z,225.00
2018-10-07T11:16:04.498Z,225.00
2018-10-07T11:17:04.478Z,225.00
2018-10-07T11:18:04.475Z,225.00
2018-10-07T11:19:04.465Z,230.63
2018-10-07T11:20:04.456Z,225.00
2018-10-07T11:21:04.449Z,225.00
2018-10-07T11:22:04.445Z,225.00
2018-10-07T11:23:04.434Z,225.00
2018-10-07T11:24:04.427Z,225.00
2018-10-07T11:25:04.421Z,225.00
2018-10-07T11:26:04.420Z,225.00
2018-10-07T11:27:04.408Z,225.00
2018-10-07T11:28:04.401Z,225.00
2018-10-07T11:29:04.391Z,225.00
2018-10-07T11:30:04.384Z,225.00
2018-10-07T11:31:04.377Z,225.00
2018-10-07T11:32:04.377Z,225.00
2018-10-07T11:33:04.365Z,230.63
2018-10-07T11:34:04.361Z,230.63
2018-10-07T11:35:04.358Z,225.00
2018-10-07T11:36:04.344Z,225.00
2018-10-07T11:37:04.331Z,230.63
2018-10-07T11:38:04.329Z,225.00
2018-10-07T11:39:04.322Z,225.00
2018-10-07T11:40:04.306Z,219.38
2018-10-07T11:41:04.304Z,225.00
2018-10-07T11:42:04.293Z,219.38
2018-10-07T11:43:04.285Z,219.38
2018-10-07T11:44:04.284Z,225.00
2018-10-07T11:45:04.282Z,225.00
2018-10-07T11:46:04.265Z,225.00
2018-10-07T11:47:04.258Z,225.00
2018-10-07T11:48:04.249Z,225.00
2018-10-07T11:49:04.242Z,225.00
2018-10-07T11:50:04.247Z,225.00
2018-10-07T11:51:04.228Z,225.00
2018-10-07T11:52:04.227Z,225.00
2018-10-07T11:53:04.213Z,225.00
2018-10-07T11:54:04.202Z,225.00
2018-10-07T11:55:04.197Z,225.00
2018-10-07T11:56:04.201Z,230.63
2018-10-07T11:57:04.179Z,225.00
2018-10-07T11:58:04.172Z,225.00
2018-10-07T11:59:04.162Z,225.00
2018-10-07T12:00:04.165Z,230.63
2018-10-07T12:01:04.147Z,225.00
2018-10-07T12:02:04.149Z,225.00
2018-10-07T12:03:04.137Z,225.00
2018-10-07T12:04:04.126Z,225.00
2018-10-07T12:05:04.124Z,219.38
2018-10-07T12:06:04.115Z,213.75
2018-10-07T12:07:04.102Z,230.63
2018-10-07T12:08:04.095Z,219.38
2018-10-07T12:09:04.085Z,219.38
2018-10-07T12:10:04.148Z,219.38
2018-10-07T12:11:04.073Z,230.63
2018-10-07T12:12:04.072Z,225.00
2018-10-07T12:13:04.061Z,225.00
2018-10-07T12:14:04.049Z,225.00
2018-10-07T12:15:04.043Z,225.00
2018-10-07T12:16:04.037Z,225.00
2018-10-07T12:17:04.034Z,225.00
2018-10-07T12:18:04.025Z,219.38
2018-10-07T12:19:04.024Z,219.38
2018-10-07T12:20:04.008Z,219.38
2018-10-07T12:21:03.995Z,219.38
2018-10-07T12:22:03.994Z,219.38
2018-10-07T12:23:03.980Z,213.75
2018-10-07T12:24:03.974Z,213.75
2018-10-07T12:25:03.964Z,219.38
2018-10-07T12:26:03.958Z,219.38
2018-10-07T12:27:03.952Z,219.38
2018-10-07T12:28:03.946Z,219.38
2018-10-07T12:29:03.997Z,219.38
2018-10-07T12:30:03.934Z,202.50
2018-10-07T12:31:03.930Z,213.75
2018-10-07T12:32:03.940Z,213.75
2018-10-07T12:33:03.908Z,208.13
2018-10-07T12:34:03.916Z,208.13
2018-10-07T12:35:03.912Z,208.13
2018-10-07T12:36:03.882Z,208.13
2018-10-07T12:37:03.883Z,208.13
2018-10-07T12:38:03.870Z,213.75
2018-10-07T12:39:03.864Z,208.13
2018-10-07T12:40:03.852Z,208.13
2018-10-07T12:41:03.853Z,213.75
2018-10-07T12:42:03.841Z,208.13
2018-10-07T12:43:03.830Z,208.13
2018-10-07T12:44:03.820Z,208.13
2018-10-07T12:45:03.819Z,208.13
2018-10-07T12:46:03.810Z,208.13
2018-10-07T12:47:03.796Z,208.13
2018-10-07T12:48:03.788Z,202.50
2018-10-07T12:49:03.783Z,208.13
2018-10-07T12:50:03.777Z,208.13